Star City, WV

9:22 AM EDT on September 26, 2016 (GMT -0400)
Jefferson | | Change Station

Elev 1033 ft 39.94 °N, 80.05 °W | Updated 2 hours ago

Clear
Clear
48.0 °F
Feels Like 48.0 °F
N
0.0
Wind Variable Wind from North
Gusts 0.0 mph

Today
High -- | Low -- °F
--% Chance of Precip.
Yesterday
High -- | Low -- °F
Precip. -- in
Pressure 30.00 in
Visibility 10.0 miles
Clouds Clear
Dew Point 47.5 °F
Humidity 98%
Rainfall 0.00 in
Snow Depth Not available.
7:11 AM 7:09 PM
Waning Crescent, 19% visible
METAR KMGW 261253Z 00000KT 10SM CLR 18/13 A3002 RMK AO2 SLP158 T01830128
Pressure 30.00 in
Visibility 10.0 miles
Clouds Clear
Dew Point 47.5 °F
Humidity 98%
Rainfall 0.00 in
Snow Depth Not available.
7:11 AM 7:09 PM
Waning Crescent, 19% visible
METAR KMGW 261253Z 00000KT 10SM CLR 18/13 A3002 RMK AO2 SLP158 T01830128

10-Day Weather Forecast

Almanac

Astronomy

Sep. 26, 2016 Rise Set
Actual Time
Civil Twilight
Nautical Twilight
Astronomical Twilight
Moon
Length of Visible Light
Length of Day
Tomorrow will be .
, % of the Moon is Illuminated

Today's Extremes

State Highs State Lows

Community

WunderPhotos

Upload Photos

1,941,881 photos uploaded!

WunderBlog® & News

Nearby

Air Quality

  Air Quality AQ Index Pollutant
Not available.

Snow Depth

Station Depth Elevation

Earthquake Activity

City Distance Mag. Time & Date
Minimum magnitude displayed is 2.5.

Coastal Water Temperatures

Place Temperature

Stations

Nearby Weather Stations

Station Location Temp. Windchill Dew Point Humidity Wind Precip. Elev Updated Type
                   

Watches & Warnings

There are currently no watches in effect.